South Charleston, Ohio
Current Conditions -  °F | °C
As of 3:56 PM on Sunday 23 Nov 2014 (Local Time) from KSGH Reporting Station
Broken Clouds Broken Clouds  
Wind Chill: 59°   Ceiling: 6000
Heat Index: 59°   Visibility: 8mi
Dew Point: 45°   Wind: 12mph
Humidity: 60%   Direction: 120°ESE
Pressure: 29.67"   Gusts: NA
Location:  39.83°N, 83.63°W
Report Text: KSGH 232056Z AUTO 12010KT 8SM BKN060 15/07 A2967 RMK AO2 56053 T01500072 SLP046 $
Loading
Personal Weather Stations






























Interactive Weather Map New forecast layout! Learn more

10-Day Weather Forecast

Advertisements
Track Severe Weather on mobile